Time;durP1;ratioP1;P1;durP2;ratioP2;P2;SDS_P1;SDS_P2;PMS_P1;PMS_P2;Temp;Humidity;BMP_temperature;BMP_pressure;BME280_temperature;BME280_humidity;BME280_pressure;Samples;Min_cycle;Max_cycle;Signal;HPM_P1;HPM_P2
2023/04/02 00:00:59;;;;;;;;;;;;;;;4.62;82.40;94389.19;4917240;29;1042;-53
2023/04/02 00:03:52;;;;;;;;;;;;;;;4.66;82.72;94389.75;4917270;29;1098;-53
2023/04/02 00:06:24;;;;;;;;;;;;;;;5.08;81.67;94394.59;4917135;29;1876;-53
2023/04/02 00:08:55;;;;;;;;;;;;;;;5.37;81.90;94386.53;4917064;29;1027;-53
2023/04/02 00:11:37;;;;;;;;;;;;;;;5.51;81.71;94392.31;4917471;29;1048;-53
2023/04/02 00:14:04;;;;;;;;;;;;;;;5.22;79.36;94388.84;4917481;29;1011;-53
2023/04/02 00:16:31;;;;;;;;;;;;;;;5.17;80.75;94382.31;4900497;29;1915;-53
2023/04/02 00:19:00;;;;;;;;;;;;;;;5.04;81.05;94388.75;4917330;29;987;-53
2023/04/02 00:21:28;;;;;;;;;;;;;;;5.08;80.73;94379.56;4917133;29;1052;-53
2023/04/02 00:23:55;;;;;;;;;;;;;;;5.00;81.55;94374.16;4916965;29;1095;-53
2023/04/02 00:26:29;;;;;;;;;;;;;;;5.03;82.16;94375.69;4917345;29;1243;-52
2023/04/02 00:28:56;;;;;;;;;;;;;;;5.28;82.05;94376.81;4917218;29;1037;-53
2023/04/02 00:31:23;;;;;;;;;;;;;;;4.98;81.24;94378.75;4917297;29;1051;-53
2023/04/02 00:33:49;;;;;;;;;;;;;;;4.98;82.30;94380.56;4917162;29;1027;-53
2023/04/02 00:36:18;;;;;;;;;;;;;;;5.33;81.51;94374.56;4917153;29;1995;-53
2023/04/02 00:38:45;;;;;;;;;;;;;;;5.43;81.65;94385.09;4917141;29;967;-53
2023/04/02 00:41:16;;;;;;;;;;;;;;;5.43;81.27;94383.28;4916761;29;1298;-53
2023/04/02 00:43:45;;;;;;;;;;;;;;;5.18;80.59;94379.53;4917253;29;960;-53
2023/04/02 00:46:15;;;;;;;;;;;;;;;5.15;81.51;94376.31;4916924;29;1086;-53
2023/04/02 00:48:50;;;;;;;;;;;;;;;5.11;82.01;94373.13;4916838;29;1280;-53
2023/04/02 00:51:21;;;;;;;;;;;;;;;5.16;82.37;94389.44;4915748;29;1632;-53
2023/04/02 00:53:47;;;;;;;;;;;;;;;5.03;82.65;94392.41;4917031;29;1054;-53
2023/04/02 00:56:17;;;;;;;;;;;;;;;4.84;82.06;94389.84;4916735;29;1989;-53
2023/04/02 00:58:44;;;;;;;;;;;;;;;4.76;83.20;94390.56;4917112;29;971;-53
2023/04/02 01:01:17;;;;;;;;;;;;;;;5.08;82.76;94398.13;4917112;29;968;-53
2023/04/02 01:04:04;;;;;;;;;;;;;;;5.23;82.28;94395.78;4916748;29;1086;-53
2023/04/02 01:06:36;;;;;;;;;;;;;;;5.09;81.98;94398.94;4917005;29;1016;-53
2023/04/02 01:09:04;;;;;;;;;;;;;;;5.06;81.64;94397.41;4917980;29;991;-53
2023/04/02 01:11:40;;;;;;;;;;;;;;;5.06;81.86;94405.34;4920118;29;1879;-53
2023/04/02 01:14:09;;;;;;;;;;;;;;;5.21;81.93;94402.22;4920224;29;1002;-53
2023/04/02 01:16:45;;;;;;;;;;;;;;;5.04;81.85;94406.47;4920068;29;1964;-53
2023/04/02 01:19:30;;;;;;;;;;;;;;;4.98;81.77;94410.53;4920292;29;1030;-53
2023/04/02 01:22:00;;;;;;;;;;;;;;;5.16;82.36;94409.78;4920271;29;1023;-53
2023/04/02 01:24:31;;;;;;;;;;;;;;;4.94;81.90;94403.88;4919990;29;1031;-53
2023/04/02 01:26:59;;;;;;;;;;;;;;;4.86;83.15;94406.41;4919961;29;1036;-53
2023/04/02 01:29:25;;;;;;;;;;;;;;;5.07;82.74;94409.69;4920089;29;1007;-53
2023/04/02 01:31:53;;;;;;;;;;;;;;;5.07;82.75;94414.16;4920073;29;1010;-53
2023/04/02 01:34:21;;;;;;;;;;;;;;;4.84;83.06;94409.22;4919950;29;1002;-53
2023/04/02 01:37:05;;;;;;;;;;;;;;;4.71;83.78;94403.41;4919721;29;1915;-53
2023/04/02 01:39:39;;;;;;;;;;;;;;;4.95;83.97;94402.91;4919571;29;975;-53
2023/04/02 01:42:14;;;;;;;;;;;;;;;5.13;83.42;94394.19;4919375;29;1167;-53
2023/04/02 01:44:42;;;;;;;;;;;;;;;5.20;82.85;94393.44;4919853;29;1007;-53
2023/04/02 01:47:10;;;;;;;;;;;;;;;5.01;83.74;94390.91;4919449;29;1091;-53
2023/04/02 01:49:39;;;;;;;;;;;;;;;5.07;84.11;94387.66;4919618;29;991;-53
2023/04/02 01:52:05;;;;;;;;;;;;;;;5.25;83.61;94391.22;4919337;29;1039;-53
2023/04/02 01:54:32;;;;;;;;;;;;;;;5.37;83.17;94394.47;4919563;29;1910;-53
2023/04/02 01:56:58;;;;;;;;;;;;;;;5.15;84.17;94397.53;4919626;29;1050;-53
2023/04/02 01:59:25;;;;;;;;;;;;;;;4.97;83.44;94402.75;4919593;29;964;-53
2023/04/02 02:01:54;;;;;;;;;;;;;;;4.96;83.41;94411.69;4919567;29;961;-53
2023/04/02 02:04:20;;;;;;;;;;;;;;;4.79;83.77;94406.16;4919335;29;960;-53
2023/04/02 02:06:46;;;;;;;;;;;;;;;4.96;84.10;94411.69;4919257;29;1210;-52
2023/04/02 02:09:32;;;;;;;;;;;;;;;5.20;83.40;94404.06;4918993;29;991;-53
2023/04/02 02:12:00;;;;;;;;;;;;;;;5.35;83.46;94407.06;4918924;29;1217;-53
2023/04/02 02:14:27;;;;;;;;;;;;;;;5.41;82.95;94408.28;4919133;29;960;-53
2023/04/02 02:16:55;;;;;;;;;;;;;;;5.46;82.41;94413.94;4917891;29;1970;-53
2023/04/02 02:19:21;;;;;;;;;;;;;;;5.53;82.25;94415.03;4918995;29;1029;-53
2023/04/02 02:21:49;;;;;;;;;;;;;;;5.31;82.07;94410.13;4917889;29;1050;-52
2023/04/02 02:24:18;;;;;;;;;;;;;;;5.11;82.12;94412.06;4919055;29;1046;-53
2023/04/02 02:26:46;;;;;;;;;;;;;;;5.14;83.21;94409.94;4919086;29;1047;-53
2023/04/02 02:29:16;;;;;;;;;;;;;;;4.99;83.48;94398.97;4918926;29;975;-53
2023/04/02 02:31:44;;;;;;;;;;;;;;;4.96;83.82;94404.56;4918784;29;1043;-53
2023/04/02 02:34:19;;;;;;;;;;;;;;;5.12;83.96;94400.44;4918685;29;964;-52
2023/04/02 02:36:49;;;;;;;;;;;;;;;5.23;83.85;94392.31;4918475;29;1927;-53
2023/04/02 02:39:24;;;;;;;;;;;;;;;5.25;83.21;94398.31;4918726;29;1051;-53
2023/04/02 02:41:50;;;;;;;;;;;;;;;4.96;83.52;94398.44;4918468;29;1101;-53
2023/04/02 02:44:19;;;;;;;;;;;;;;;4.91;84.48;94400.69;4918656;29;1019;-53
2023/04/02 02:46:49;;;;;;;;;;;;;;;5.01;84.63;94402.31;4918357;29;1231;-53
2023/04/02 02:49:18;;;;;;;;;;;;;;;4.97;84.29;94402.75;4918646;29;982;-53
2023/04/02 02:52:06;;;;;;;;;;;;;;;5.03;84.42;94396.88;4918430;29;976;-53
2023/04/02 02:54:34;;;;;;;;;;;;;;;5.15;84.69;94398.34;4901902;29;1915;-53
2023/04/02 02:57:01;;;;;;;;;;;;;;;5.24;84.08;94399.31;4918300;29;1036;-53
2023/04/02 02:59:28;;;;;;;;;;;;;;;5.28;82.90;94390.91;4918128;29;1040;-53
2023/04/02 03:01:54;;;;;;;;;;;;;;;5.29;82.67;94402.31;4918413;29;1006;-53
2023/04/02 03:04:21;;;;;;;;;;;;;;;5.00;83.81;94405.09;4918081;29;1189;-53
2023/04/02 03:06:51;;;;;;;;;;;;;;;4.83;84.47;94391.63;4918282;29;1010;-53
2023/04/02 03:09:26;;;;;;;;;;;;;;;4.79;84.85;94395.56;4918102;29;1030;-53
2023/04/02 03:12:02;;;;;;;;;;;;;;;4.87;85.50;94394.84;4918181;29;1117;-53
2023/04/02 03:14:34;;;;;;;;;;;;;;;5.02;85.28;94403.16;4918140;29;1036;-53
2023/04/02 03:17:19;;;;;;;;;;;;;;;5.03;84.42;94405.66;4917909;29;1086;-53
2023/04/02 03:19:55;;;;;;;;;;;;;;;4.82;84.85;94405.03;4918187;29;1031;-53
2023/04/02 03:22:30;;;;;;;;;;;;;;;4.98;85.12;94399.13;4917754;29;1039;-53
2023/04/02 03:25:00;;;;;;;;;;;;;;;4.99;84.17;94403.44;4918129;29;1022;-53
2023/04/02 03:27:39;;;;;;;;;;;;;;;5.02;84.30;94403.97;4917912;29;1015;-53
2023/04/02 03:30:20;;;;;;;;;;;;;;;5.11;84.33;94399.63;4917888;29;1011;-53
2023/04/02 03:32:48;;;;;;;;;;;;;;;4.91;83.53;94405.97;4917226;29;1115;-53
2023/04/02 03:35:33;;;;;;;;;;;;;;;4.84;84.30;94408.38;4917843;29;1995;-52
2023/04/02 03:38:11;;;;;;;;;;;;;;;4.91;83.81;94403.31;4917635;29;1051;-52
2023/04/02 03:40:40;;;;;;;;;;;;;;;4.68;84.59;94403.66;4917304;29;1220;-52
2023/04/02 03:43:09;;;;;;;;;;;;;;;4.63;84.89;94411.19;4917735;29;1010;-52
2023/04/02 03:45:39;;;;;;;;;;;;;;;4.61;85.67;94413.16;4917403;29;1045;-52
2023/04/02 03:48:34;;;;;;;;;;;;;;;4.81;85.12;94412.13;4917619;29;972;-52
2023/04/02 03:51:22;;;;;;;;;;;;;;;5.02;84.02;94411.91;4908631;29;1725;-52
2023/04/02 03:53:48;;;;;;;;;;;;;;;5.12;83.70;94411.88;4917221;29;1043;-53
2023/04/02 03:56:41;;;;;;;;;;;;;;;5.08;83.25;94418.47;4917235;29;1910;-52
2023/04/02 03:59:25;;;;;;;;;;;;;;;5.05;84.34;94413.47;4915438;29;1839;-51
2023/04/02 04:02:10;;;;;;;;;;;;;;;4.86;83.52;94419.66;4917532;29;1063;-51
2023/04/02 04:04:39;;;;;;;;;;;;;;;4.51;84.24;94418.47;4917259;29;1023;-51
2023/04/02 04:07:08;;;;;;;;;;;;;;;4.41;85.14;94422.97;4917364;29;1035;-51
2023/04/02 04:09:36;;;;;;;;;;;;;;;4.54;85.77;94418.19;4917266;29;1306;-51
2023/04/02 04:12:08;;;;;;;;;;;;;;;4.91;84.67;94414.75;4917457;29;1027;-52
2023/04/02 04:14:36;;;;;;;;;;;;;;;4.99;84.30;94417.53;4917119;29;1218;-52
2023/04/02 04:17:08;;;;;;;;;;;;;;;4.84;84.20;94422.44;4917112;29;1020;-52
2023/04/02 04:19:47;;;;;;;;;;;;;;;4.65;84.71;94425.16;4917067;29;1070;-52
2023/04/02 04:22:17;;;;;;;;;;;;;;;4.38;86.14;94412.66;4917049;29;1043;-51
2023/04/02 04:24:46;;;;;;;;;;;;;;;4.42;86.76;94425.47;4917055;29;960;-51
2023/04/02 04:27:34;;;;;;;;;;;;;;;4.85;85.46;94433.88;4917024;29;1025;-52
2023/04/02 04:30:04;;;;;;;;;;;;;;;5.03;85.44;94429.50;4917050;29;1109;-51
2023/04/02 04:32:34;;;;;;;;;;;;;;;5.04;84.00;94427.69;4917153;29;1112;-52
2023/04/02 04:35:18;;;;;;;;;;;;;;;5.14;83.88;94427.63;4916887;29;1907;-52
2023/04/02 04:37:48;;;;;;;;;;;;;;;5.01;83.66;94435.94;4916956;29;967;-52
2023/04/02 04:40:35;;;;;;;;;;;;;;;4.80;84.67;94439.63;4916755;29;1336;-52
2023/04/02 04:43:03;;;;;;;;;;;;;;;4.85;84.72;94437.34;4916753;29;1379;-52
2023/04/02 04:45:39;;;;;;;;;;;;;;;5.05;83.71;94445.25;4920555;29;979;-51
2023/04/02 04:48:25;;;;;;;;;;;;;;;5.15;83.69;94438.09;4920437;29;1030;-52
2023/04/02 04:50:58;;;;;;;;;;;;;;;5.23;83.09;94440.84;4920622;29;957;-52
2023/04/02 04:53:25;;;;;;;;;;;;;;;5.36;83.07;94451.13;4920584;29;1049;-52
2023/04/02 04:55:52;;;;;;;;;;;;;;;5.37;83.50;94449.28;4919492;29;1910;-52
2023/04/02 04:58:28;;;;;;;;;;;;;;;5.34;84.62;94444.31;4920643;29;1251;-52
2023/04/02 05:00:54;;;;;;;;;;;;;;;5.38;84.81;94450.97;4920371;29;1035;-52
2023/04/02 05:03:43;;;;;;;;;;;;;;;5.17;84.02;94456.50;4920501;29;1037;-52
2023/04/02 05:06:12;;;;;;;;;;;;;;;5.24;84.12;94457.59;4920168;29;1095;-52
2023/04/02 05:08:41;;;;;;;;;;;;;;;5.41;84.32;94469.25;4920233;29;991;-52
2023/04/02 05:11:25;;;;;;;;;;;;;;;5.53;83.50;94467.25;4920231;29;1872;-52
2023/04/02 05:14:01;;;;;;;;;;;;;;;5.66;83.09;94468.56;4920150;29;1055;-52
2023/04/02 05:16:32;;;;;;;;;;;;;;;5.38;83.67;94466.88;4920226;29;1997;-52
2023/04/02 05:18:58;;;;;;;;;;;;;;;5.14;85.22;94468.25;4920126;29;1955;-52
2023/04/02 05:21:46;;;;;;;;;;;;;;;5.16;85.87;94468.06;4919854;29;1031;-52
2023/04/02 05:24:18;;;;;;;;;;;;;;;5.54;84.54;94469.75;4920543;29;1014;-52
2023/04/02 05:26:46;;;;;;;;;;;;;;;5.84;84.03;94467.75;4920161;29;1046;-52
2023/04/02 05:29:19;;;;;;;;;;;;;;;6.17;82.74;94471.63;4920136;29;1043;-52
2023/04/02 05:31:59;;;;;;;;;;;;;;;6.55;82.18;94474.13;4919842;29;990;-52
2023/04/02 05:34:28;;;;;;;;;;;;;;;6.92;81.41;94479.22;4920166;29;847;-52
2023/04/02 05:36:54;;;;;;;;;;;;;;;7.05;81.77;94468.19;4919863;29;1991;-51
2023/04/02 05:39:21;;;;;;;;;;;;;;;7.19;80.68;94472.94;4919738;29;1039;-52
2023/04/02 05:41:54;;;;;;;;;;;;;;;7.50;77.97;94480.41;4919565;29;1139;-52
2023/04/02 05:44:23;;;;;;;;;;;;;;;7.86;75.53;94484.75;4919884;29;1051;-52
2023/04/02 05:46:49;;;;;;;;;;;;;;;8.51;72.12;94481.44;4919771;29;968;-52
2023/04/02 05:49:23;;;;;;;;;;;;;;;8.52;74.12;94478.59;4919802;29;1046;-51
2023/04/02 05:51:51;;;;;;;;;;;;;;;8.46;72.02;94475.75;4919424;29;1863;-51
2023/04/02 05:54:26;;;;;;;;;;;;;;;8.43;71.66;94478.75;4919249;29;1574;-51
2023/04/02 05:56:56;;;;;;;;;;;;;;;8.40;72.45;94478.06;4919326;29;1914;-51
2023/04/02 05:59:28;;;;;;;;;;;;;;;8.43;73.60;94482.25;4919334;29;1099;-52
2023/04/02 06:01:58;;;;;;;;;;;;;;;8.62;73.29;94474.94;4919341;29;1094;-52
2023/04/02 06:04:28;;;;;;;;;;;;;;;8.73;72.62;94478.13;4919406;29;980;-52
2023/04/02 06:07:06;;;;;;;;;;;;;;;8.81;72.11;94474.63;4919275;29;1055;-51
2023/04/02 06:09:41;;;;;;;;;;;;;;;9.27;71.70;94474.06;4919344;29;1031;-51
2023/04/02 06:12:17;;;;;;;;;;;;;;;9.66;70.11;94479.47;4919099;29;1882;-51
2023/04/02 06:14:44;;;;;;;;;;;;;;;9.51;70.56;94473.19;4918990;29;1994;-51
2023/04/02 06:17:14;;;;;;;;;;;;;;;9.67;70.54;94482.97;4919084;29;1083;-51
2023/04/02 06:19:40;;;;;;;;;;;;;;;9.94;69.77;94482.53;4919229;29;1010;-51
2023/04/02 06:22:09;;;;;;;;;;;;;;;9.97;70.45;94471.50;4919176;29;1055;-51
2023/04/02 06:24:38;;;;;;;;;;;;;;;10.25;69.62;94486.25;4917782;29;1023;-51
2023/04/02 06:27:05;;;;;;;;;;;;;;;10.27;68.81;94484.22;4919023;29;996;-51
2023/04/02 06:29:39;;;;;;;;;;;;;;;10.46;69.01;94488.31;4919191;29;1022;-51
2023/04/02 06:32:06;;;;;;;;;;;;;;;10.39;70.09;94500.72;4919133;29;1298;-52
2023/04/02 06:34:32;;;;;;;;;;;;;;;10.35;70.47;94493.03;4918620;29;1091;-52
2023/04/02 06:37:00;;;;;;;;;;;;;;;10.31;69.22;94493.59;4918588;29;1994;-51
2023/04/02 06:39:26;;;;;;;;;;;;;;;10.66;68.17;94494.88;4918619;29;1260;-52
2023/04/02 06:42:18;;;;;;;;;;;;;;;11.21;65.81;94494.75;4918516;29;1303;-51
2023/04/02 06:44:45;;;;;;;;;;;;;;;11.73;64.57;94504.63;4917841;29;2020;-52
2023/04/02 06:47:20;;;;;;;;;;;;;;;12.28;63.47;94500.66;4910014;29;1006;-51
2023/04/02 06:50:01;;;;;;;;;;;;;;;12.61;61.59;94500.22;4937360;29;1019;-52
2023/04/02 06:52:29;;;;;;;;;;;;;;;12.72;60.72;94498.88;4937411;29;1035;-52
2023/04/02 06:54:56;;;;;;;;;;;;;;;12.71;60.50;94502.59;4937238;29;1903;-51
2023/04/02 06:57:22;;;;;;;;;;;;;;;13.08;60.63;94509.56;4937240;29;1039;-52
2023/04/02 06:59:48;;;;;;;;;;;;;;;13.21;59.53;94499.97;4937140;29;1023;-52
2023/04/02 07:02:22;;;;;;;;;;;;;;;13.26;58.05;94494.84;4934709;29;2068;-52
2023/04/02 07:04:48;;;;;;;;;;;;;;;13.56;58.39;94505.44;4937385;29;1022;-52
2023/04/02 07:07:14;;;;;;;;;;;;;;;13.70;57.43;94501.00;4936482;29;1102;-52
2023/04/02 07:09:41;;;;;;;;;;;;;;;13.93;58.51;94506.13;4936934;29;1555;-52
2023/04/02 07:12:11;;;;;;;;;;;;;;;14.12;56.15;94508.09;4936746;29;1046;-52
2023/04/02 07:14:37;;;;;;;;;;;;;;;14.53;55.71;94511.78;4936878;29;1440;-51
2023/04/02 07:17:03;;;;;;;;;;;;;;;15.00;52.44;94519.00;4937113;29;1911;-52
2023/04/02 07:19:29;;;;;;;;;;;;;;;15.17;53.23;94521.31;4936810;29;1074;-53
2023/04/02 07:21:55;;;;;;;;;;;;;;;15.07;54.02;94516.31;4936974;29;1043;-52
2023/04/02 07:24:21;;;;;;;;;;;;;;;14.99;52.83;94527.28;4936825;29;1051;-50
2023/04/02 07:26:47;;;;;;;;;;;;;;;15.27;51.41;94532.53;4937056;29;1243;-52
2023/04/02 07:29:14;;;;;;;;;;;;;;;15.36;50.91;94528.56;4936999;29;991;-53
2023/04/02 07:31:40;;;;;;;;;;;;;;;15.78;51.09;94525.72;4936927;29;1039;-52
2023/04/02 07:34:07;;;;;;;;;;;;;;;15.85;50.24;94525.72;4936539;29;1894;-51
2023/04/02 07:36:33;;;;;;;;;;;;;;;16.17;47.77;94532.91;4936893;29;1993;-51
2023/04/02 07:38:59;;;;;;;;;;;;;;;16.57;46.45;94534.69;4936908;29;1039;-51
2023/04/02 07:41:26;;;;;;;;;;;;;;;16.60;46.33;94534.25;4922981;29;2093;-52
2023/04/02 07:43:52;;;;;;;;;;;;;;;16.68;47.16;94525.09;4921555;29;980;-52
2023/04/02 07:46:19;;;;;;;;;;;;;;;16.56;49.99;94519.50;4936499;29;1091;-50
2023/04/02 07:48:45;;;;;;;;;;;;;;;16.38;48.59;94526.44;4932564;29;1324;-52
2023/04/02 07:51:25;;;;;;;;;;;;;;;16.22;50.34;94520.66;4917727;29;1023;-51
2023/04/02 07:53:54;;;;;;;;;;;;;;;16.22;47.45;94524.22;4917563;29;1043;-52
2023/04/02 07:56:21;;;;;;;;;;;;;;;16.20;49.88;94519.03;4917274;29;1999;-52
2023/04/02 07:58:47;;;;;;;;;;;;;;;16.66;48.45;94521.78;4917544;29;971;-52
2023/04/02 08:01:15;;;;;;;;;;;;;;;17.22;48.39;94515.69;4917385;29;1039;-52
2023/04/02 08:03:41;;;;;;;;;;;;;;;17.25;47.12;94525.25;4917162;29;1252;-52
2023/04/02 08:06:07;;;;;;;;;;;;;;;17.04;48.31;94527.22;4917307;29;1052;-52
2023/04/02 08:08:33;;;;;;;;;;;;;;;16.97;46.13;94532.66;4926004;29;2040;-52
2023/04/02 08:10:59;;;;;;;;;;;;;;;17.20;45.82;94528.59;4928064;29;1055;-52
2023/04/02 08:13:25;;;;;;;;;;;;;;;17.93;44.75;94524.53;4936562;29;963;-52
2023/04/02 08:15:51;;;;;;;;;;;;;;;18.41;45.84;94523.84;4936306;29;1987;-52
2023/04/02 08:18:20;;;;;;;;;;;;;;;18.83;45.37;94520.47;4937754;29;1007;-52
2023/04/02 08:20:46;;;;;;;;;;;;;;;18.65;43.11;94534.84;4940164;29;1529;-52
2023/04/02 08:23:15;;;;;;;;;;;;;;;18.90;43.80;94524.75;4940094;29;1094;-53
2023/04/02 08:25:41;;;;;;;;;;;;;;;18.97;42.80;94521.13;4940306;29;1010;-53
2023/04/02 08:28:07;;;;;;;;;;;;;;;18.63;44.77;94520.66;4926968;29;1861;-53
2023/04/02 08:30:33;;;;;;;;;;;;;;;18.43;41.16;94527.16;4933153;29;1588;-53
2023/04/02 08:32:59;;;;;;;;;;;;;;;18.57;40.98;94532.41;4940001;29;986;-51
2023/04/02 08:35:26;;;;;;;;;;;;;;;18.69;41.25;94526.03;4939922;29;1919;-51
2023/04/02 08:37:52;;;;;;;;;;;;;;;18.99;41.61;94519.00;4939813;29;1295;-52
2023/04/02 08:40:23;;;;;;;;;;;;;;;19.40;39.59;94520.94;4939630;29;1145;-52
2023/04/02 08:43:08;;;;;;;;;;;;;;;19.46;38.28;94524.59;4928542;29;1721;-53
2023/04/02 08:45:54;;;;;;;;;;;;;;;19.49;38.95;94519.53;4939816;29;1029;-54
2023/04/02 08:48:20;;;;;;;;;;;;;;;19.07;38.36;94524.13;4939577;29;1015;-54
2023/04/02 08:50:46;;;;;;;;;;;;;;;18.66;40.00;94517.53;4939557;29;1099;-52
2023/04/02 08:53:23;;;;;;;;;;;;;;;18.20;39.43;94527.00;4939804;29;1058;-56
2023/04/02 08:55:49;;;;;;;;;;;;;;;18.11;40.76;94511.03;4939082;29;1918;-54
2023/04/02 08:58:23;;;;;;;;;;;;;;;18.61;39.18;94507.38;4939488;29;987;-53
2023/04/02 09:00:52;;;;;;;;;;;;;;;18.62;38.13;94519.03;4939487;29;1094;-52
2023/04/02 09:03:21;;;;;;;;;;;;;;;19.09;39.58;94509.28;4938083;29;2555;-52
2023/04/02 09:05:49;;;;;;;;;;;;;;;19.21;38.51;94513.91;4939629;29;1026;-54
2023/04/02 09:08:26;;;;;;;;;;;;;;;19.40;37.45;94512.78;4939434;29;924;-53
2023/04/02 09:11:04;;;;;;;;;;;;;;;18.64;37.11;94516.94;4939289;29;1228;-53
2023/04/02 09:13:32;;;;;;;;;;;;;;;18.44;40.17;94504.47;4939513;29;1022;-53
2023/04/02 09:16:13;;;;;;;;;;;;;;;19.40;38.42;94507.38;4939284;29;1953;-54
2023/04/02 09:18:40;;;;;;;;;;;;;;;19.28;36.40;94515.47;4930232;29;1724;-53
2023/04/02 09:21:27;;;;;;;;;;;;;;;18.76;36.33;94504.25;4920095;29;1099;-53
2023/04/02 09:23:53;;;;;;;;;;;;;;;18.59;37.43;94495.09;4926287;29;1082;-53
2023/04/02 09:26:21;;;;;;;;;;;;;;;18.05;37.69;94498.41;4925661;29;1055;-53
2023/04/02 09:28:49;;;;;;;;;;;;;;;17.87;35.57;94495.66;4919910;29;1102;-53
2023/04/02 09:31:18;;;;;;;;;;;;;;;18.30;37.23;94490.22;4922248;29;1993;-54
2023/04/02 09:33:49;;;;;;;;;;;;;;;18.84;36.45;94486.94;4929784;29;1890;-54
2023/04/02 09:36:17;;;;;;;;;;;;;;;18.83;34.00;94490.69;4921678;29;1915;-53
2023/04/02 09:39:16;;;;;;;;;;;;;;;19.14;38.08;94480.66;4919787;29;1998;-55
2023/04/02 09:45:19;;;;;;;;;;;;;;;19.23;35.57;94480.09;4879896;29;1320;-55
2023/04/02 09:47:45;;;;;;;;;;;;;;;19.07;36.46;94467.25;4931643;29;1166;-54
2023/04/02 09:50:12;;;;;;;;;;;;;;;19.16;37.71;94454.16;4938864;29;1069;-56
2023/04/02 09:52:38;;;;;;;;;;;;;;;19.52;37.62;94455.91;4938468;29;1035;-55
2023/04/02 09:55:26;;;;;;;;;;;;;;;19.95;36.36;94462.09;4938534;29;1992;-55
2023/04/02 09:58:06;;;;;;;;;;;;;;;19.75;35.13;94454.28;4929204;29;1050;-56
2023/04/02 10:00:33;;;;;;;;;;;;;;;20.01;37.03;94461.97;4925583;29;3076;-55
2023/04/02 10:03:01;;;;;;;;;;;;;;;19.45;38.05;94447.06;4948301;29;1208;-55
2023/04/02 10:05:29;;;;;;;;;;;;;;;18.91;37.67;94442.44;4943872;29;1220;-55
2023/04/02 10:08:04;;;;;;;;;;;;;;;18.46;37.95;94448.22;4921134;29;1117;-55
2023/04/02 10:10:35;;;;;;;;;;;;;;;17.95;37.55;94444.00;4919093;29;1183;-55
2023/04/02 10:13:03;;;;;;;;;;;;;;;17.81;38.66;94431.63;4919173;29;1063;-55
2023/04/02 10:15:39;;;;;;;;;;;;;;;18.19;39.10;94430.63;4918891;29;1931;-55
2023/04/02 10:18:25;;;;;;;;;;;;;;;18.76;37.51;94433.84;4942259;29;1146;-56
2023/04/02 10:20:52;;;;;;;;;;;;;;;19.36;37.88;94440.31;4946312;29;3005;-56
2023/04/02 10:23:18;;;;;;;;;;;;;;;19.03;37.32;94444.38;4937090;29;2872;-55
2023/04/02 10:25:53;;;;;;;;;;;;;;;19.13;37.39;94443.81;4937817;29;1014;-56
2023/04/02 10:28:37;;;;;;;;;;;;;;;19.04;36.22;94448.72;4929565;29;1524;-55
2023/04/02 10:31:12;;;;;;;;;;;;;;;18.66;37.75;94439.81;4930125;29;1289;-54
2023/04/02 10:33:39;;;;;;;;;;;;;;;18.40;38.77;94438.31;4927171;29;1359;-55
2023/04/02 10:36:18;;;;;;;;;;;;;;;18.45;38.54;94441.13;4927899;29;1911;-54
2023/04/02 10:39:11;;;;;;;;;;;;;;;18.84;37.25;94447.13;4930148;29;1790;-54
2023/04/02 10:41:51;;;;;;;;;;;;;;;19.36;35.60;94448.47;4896190;29;1596;-54
2023/04/02 10:44:28;;;;;;;;;;;;;;;19.53;34.91;94444.00;4937400;29;1185;-54
2023/04/02 10:47:21;;;;;;;;;;;;;;;19.85;34.15;94447.22;4937634;29;1029;-54
2023/04/02 10:49:52;;;;;;;;;;;;;;;19.21;35.10;94427.22;4901361;29;1899;-54
2023/04/02 10:52:20;;;;;;;;;;;;;;;18.76;35.90;94424.91;4937485;29;1043;-54
2023/04/02 10:54:53;;;;;;;;;;;;;;;18.41;35.70;94431.81;4937377;29;975;-54
2023/04/02 10:57:25;;;;;;;;;;;;;;;17.97;37.25;94422.97;4937308;29;983;-54
2023/04/02 10:59:56;;;;;;;;;;;;;;;17.95;35.95;94425.09;4937081;29;1122;-54
2023/04/02 11:02:35;;;;;;;;;;;;;;;18.60;36.19;94424.50;4936866;29;979;-54
2023/04/02 11:05:05;;;;;;;;;;;;;;;19.01;36.14;94416.66;4937003;29;1059;-54
2023/04/02 11:07:37;;;;;;;;;;;;;;;19.16;33.64;94417.09;4937058;29;1050;-53
2023/04/02 11:10:05;;;;;;;;;;;;;;;19.28;35.90;94407.06;4954500;29;1169;-54
2023/04/02 11:12:41;;;;;;;;;;;;;;;19.72;35.23;94411.38;4956081;29;1040;-54
2023/04/02 11:15:15;;;;;;;;;;;;;;;20.09;34.72;94414.69;4955945;29;1991;-54
2023/04/02 11:17:42;;;;;;;;;;;;;;;19.94;33.22;94420.59;4956122;29;969;-54
2023/04/02 11:20:26;;;;;;;;;;;;;;;19.46;32.47;94418.88;4951879;29;2057;-54
2023/04/02 11:23:09;;;;;;;;;;;;;;;19.18;35.06;94414.13;4927471;29;1984;-53
2023/04/02 11:25:35;;;;;;;;;;;;;;;18.81;34.72;94406.97;4928268;29;969;-55
2023/04/02 11:28:12;;;;;;;;;;;;;;;18.57;35.23;94407.88;4917855;29;964;-54
2023/04/02 11:30:38;;;;;;;;;;;;;;;18.62;34.44;94413.44;4917609;29;1762;-51
2023/04/02 11:33:22;;;;;;;;;;;;;;;18.37;34.27;94416.28;4930713;29;1019;-52
2023/04/02 11:35:48;;;;;;;;;;;;;;;18.11;35.25;94410.94;4924030;29;1935;-52
2023/04/02 11:38:17;;;;;;;;;;;;;;;18.24;35.08;94407.25;4935959;29;1031;-52
2023/04/02 11:40:46;;;;;;;;;;;;;;;18.17;35.17;94398.38;4935899;29;2146;-52
2023/04/02 11:43:30;;;;;;;;;;;;;;;18.09;35.17;94390.59;4924005;29;1724;-52
2023/04/02 11:45:58;;;;;;;;;;;;;;;18.05;35.90;94387.50;4916412;29;1023;-52
2023/04/02 11:48:25;;;;;;;;;;;;;;;18.23;34.94;94386.69;4917504;29;1074;-52
2023/04/02 11:50:51;;;;;;;;;;;;;;;18.30;35.88;94383.88;4917407;29;1101;-52
2023/04/02 11:53:23;;;;;;;;;;;;;;;18.26;35.95;94383.50;4916349;29;1288;-52
2023/04/02 11:55:55;;;;;;;;;;;;;;;18.03;34.76;94392.31;4917284;29;2016;-52
2023/04/02 11:58:24;;;;;;;;;;;;;;;17.84;36.88;94387.94;4917252;29;1026;-51
2023/04/02 12:01:01;;;;;;;;;;;;;;;17.79;36.31;94377.78;4916976;29;1101;-52
2023/04/02 12:03:47;;;;;;;;;;;;;;;17.67;35.84;94380.41;4917210;29;1043;-52
2023/04/02 12:06:32;;;;;;;;;;;;;;;17.62;35.51;94387.53;4907190;29;1648;-52
2023/04/02 12:09:03;;;;;;;;;;;;;;;17.85;34.84;94382.34;4935679;29;1150;-51
2023/04/02 12:11:35;;;;;;;;;;;;;;;18.05;36.29;94376.69;4955183;29;1035;-51
2023/04/02 12:14:05;;;;;;;;;;;;;;;18.37;35.58;94373.81;4955265;29;1039;-51
2023/04/02 12:16:33;;;;;;;;;;;;;;;18.33;35.32;94381.56;4955417;29;1978;-52
2023/04/02 12:19:00;;;;;;;;;;;;;;;18.49;35.68;94369.25;4955190;29;1048;-51
2023/04/02 12:21:27;;;;;;;;;;;;;;;18.57;36.04;94365.41;4955112;29;1037;-51
2023/04/02 12:23:57;;;;;;;;;;;;;;;18.41;35.57;94372.28;4955290;29;974;-51
2023/04/02 12:26:25;;;;;;;;;;;;;;;18.22;35.40;94367.97;4955306;29;1007;-51
2023/04/02 12:28:52;;;;;;;;;;;;;;;18.12;34.90;94372.03;4955009;29;1115;-52
2023/04/02 12:31:19;;;;;;;;;;;;;;;18.19;35.85;94366.53;4955073;29;1087;-52
2023/04/02 12:33:45;;;;;;;;;;;;;;;18.33;35.95;94359.91;4954897;29;1066;-52
2023/04/02 12:36:13;;;;;;;;;;;;;;;18.50;35.15;94362.81;4954850;29;2001;-52
2023/04/02 12:38:43;;;;;;;;;;;;;;;18.59;36.18;94351.63;4954986;29;1000;-52
2023/04/02 12:41:30;;;;;;;;;;;;;;;18.62;36.89;94354.72;4955231;29;998;-52
2023/04/02 12:44:00;;;;;;;;;;;;;;;18.61;36.48;94350.38;4954815;29;1119;-52
2023/04/02 12:46:28;;;;;;;;;;;;;;;18.56;35.59;94357.53;4955215;29;1022;-52
2023/04/02 12:49:03;;;;;;;;;;;;;;;18.60;36.37;94356.00;4954765;29;1027;-51
2023/04/02 12:51:30;;;;;;;;;;;;;;;18.46;36.53;94367.03;4955031;29;1023;-51
2023/04/02 12:53:56;;;;;;;;;;;;;;;18.27;36.71;94357.31;4954683;29;1094;-51
2023/04/02 12:56:22;;;;;;;;;;;;;;;17.89;36.71;94358.34;4954862;29;1906;-50
2023/04/02 12:58:56;;;;;;;;;;;;;;;17.67;37.75;94357.97;4955030;29;984;-51
2023/04/02 13:01:23;;;;;;;;;;;;;;;17.71;38.31;94365.38;4955052;29;963;-51
2023/04/02 13:03:58;;;;;;;;;;;;;;;17.93;38.70;94365.00;4954929;28;1051;-51
2023/04/02 13:06:25;;;;;;;;;;;;;;;18.00;37.77;94364.91;4958039;29;984;-52
2023/04/02 13:08:55;;;;;;;;;;;;;;;17.95;36.93;94371.81;4949943;29;1231;-51
2023/04/02 13:11:22;;;;;;;;;;;;;;;17.87;36.29;94371.28;4939430;29;1032;-51
2023/04/02 13:13:49;;;;;;;;;;;;;;;17.91;36.76;94369.81;4937711;29;1826;-51
2023/04/02 13:16:18;;;;;;;;;;;;;;;17.86;36.08;94369.63;4938862;29;1995;-51
2023/04/02 13:18:45;;;;;;;;;;;;;;;17.72;36.53;94366.25;4938920;29;991;-51
2023/04/02 13:21:13;;;;;;;;;;;;;;;17.68;36.32;94365.00;4939092;29;1030;-51
2023/04/02 13:23:40;;;;;;;;;;;;;;;17.73;35.48;94373.28;4939160;29;1058;-51
2023/04/02 13:26:17;;;;;;;;;;;;;;;17.80;36.10;94374.03;4936496;29;1696;-52
2023/04/02 13:28:54;;;;;;;;;;;;;;;18.06;36.29;94370.25;4930496;29;1740;-51